Time;durP1;ratioP1;P1;durP2;ratioP2;P2;SDS_P1;SDS_P2;PMS_P1;PMS_P2;Temp;Humidity;BMP_temperature;BMP_pressure;BME280_temperature;BME280_humidity;BME280_pressure;Samples;Min_cycle;Max_cycle;Signal;HPM_P1;HPM_P2
2022/10/07 00:02:13;;;;;;;7.18;2.97;;;;;;;;;;5036481;28;20043;-76
2022/10/07 00:04:44;;;;;;;7.55;2.90;;;;;;;;;;5036465;28;20479;-76
2022/10/07 00:07:09;;;;;;;11.38;3.08;;;;;;;;;;5036483;28;20029;-76
2022/10/07 00:09:34;;;;;;;7.38;3.20;;;;;;;;;;5036380;28;20435;-76
2022/10/07 00:11:59;;;;;;;11.13;3.33;;;;;;;;;;5036313;28;20084;-75
2022/10/07 00:14:25;;;;;;;7.65;2.92;;;;;;;;;;5036262;28;20490;-76
2022/10/07 00:16:50;;;;;;;11.85;3.10;;;;;;;;;;5036294;28;20025;-76
2022/10/07 00:19:15;;;;;;;13.50;2.95;;;;;;;;;;5036250;28;20021;-76
2022/10/07 00:21:41;;;;;;;8.70;3.28;;;;;;;;;;5036099;28;20024;-76
2022/10/07 00:24:07;;;;;;;7.93;3.00;;;;;;;;;;5036153;28;20078;-76
2022/10/07 00:26:34;;;;;;;5.60;3.00;;;;;;;;;;5036068;28;20026;-77
2022/10/07 00:29:00;;;;;;;7.80;3.00;;;;;;;;;;5036069;28;20021;-76
2022/10/07 00:31:28;;;;;;;8.18;2.80;;;;;;;;;;5035956;28;20025;-75
2022/10/07 00:33:55;;;;;;;9.35;3.33;;;;;;;;;;5036021;28;20032;-75
2022/10/07 00:36:27;;;;;;;6.40;2.80;;;;;;;;;;5036268;28;20025;-77
2022/10/07 00:38:55;;;;;;;13.25;3.20;;;;;;;;;;5036126;28;20025;-75
2022/10/07 00:41:25;;;;;;;6.35;2.70;;;;;;;;;;5035790;28;20437;-76
2022/10/07 00:43:51;;;;;;;7.45;2.70;;;;;;;;;;5036123;28;20080;-76
2022/10/07 00:46:34;;;;;;;10.50;3.13;;;;;;;;;;5018101;28;20037;-75
2022/10/07 00:49:02;;;;;;;6.47;2.95;;;;;;;;;;5018051;28;20029;-75
2022/10/07 00:51:30;;;;;;;8.18;2.95;;;;;;;;;;5035869;28;20025;-75
2022/10/07 00:53:55;;;;;;;6.82;3.13;;;;;;;;;;5035651;28;20032;-75
2022/10/07 00:56:24;;;;;;;6.75;3.17;;;;;;;;;;5035667;28;20025;-75
2022/10/07 00:58:50;;;;;;;4.80;3.03;;;;;;;;;;5017706;28;20032;-75
2022/10/07 01:01:18;;;;;;;6.07;3.17;;;;;;;;;;5017720;28;20021;-76
2022/10/07 01:03:46;;;;;;;8.38;2.83;;;;;;;;;;5035397;28;20096;-75
2022/10/07 01:06:12;;;;;;;6.57;2.67;;;;;;;;;;5017919;28;20471;-76
2022/10/07 01:08:37;;;;;;;7.90;3.00;;;;;;;;;;5035306;28;20040;-76
2022/10/07 01:11:21;;;;;;;9.40;2.85;;;;;;;;;;5035267;28;20100;-76
2022/10/07 01:13:53;;;;;;;6.05;2.75;;;;;;;;;;5035178;28;20071;-76
2022/10/07 01:16:24;;;;;;;7.50;3.10;;;;;;;;;;5035541;28;20021;-76
2022/10/07 01:19:03;;;;;;;5.40;3.22;;;;;;;;;;5035488;28;20029;-76
2022/10/07 01:21:48;;;;;;;7.40;3.30;;;;;;;;;;5035014;28;20025;-76
2022/10/07 01:24:32;;;;;;;8.45;3.35;;;;;;;;;;5035077;28;20029;-75
2022/10/07 01:27:02;;;;;;;7.38;3.42;;;;;;;;;;5017235;28;20021;-75
2022/10/07 01:29:54;;;;;;;7.07;3.15;;;;;;;;;;5017203;28;20383;-75
2022/10/07 01:32:31;;;;;;;11.70;3.30;;;;;;;;;;5034960;28;20021;-75
2022/10/07 01:34:58;;;;;;;7.20;3.17;;;;;;;;;;5034827;28;20104;-75
2022/10/07 01:37:28;;;;;;;7.97;3.20;;;;;;;;;;5034943;28;20439;-75
2022/10/07 01:39:57;;;;;;;9.85;3.60;;;;;;;;;;5034667;28;20558;-76
2022/10/07 01:42:25;;;;;;;9.90;3.00;;;;;;;;;;5034687;28;20395;-76
2022/10/07 01:44:54;;;;;;;5.70;3.00;;;;;;;;;;5034769;28;20383;-75
2022/10/07 01:47:19;;;;;;;8.48;3.00;;;;;;;;;;5016833;28;20437;-76
2022/10/07 01:49:44;;;;;;;8.90;3.13;;;;;;;;;;5034500;28;20051;-75
2022/10/07 01:52:39;;;;;;;9.23;3.17;;;;;;;;;;5034532;28;20082;-75
2022/10/07 01:55:30;;;;;;;9.77;3.63;;;;;;;;;;5001198;28;20116;-76
2022/10/07 01:58:40;;;;;;;5.78;3.00;;;;;;;;;;5034452;28;20083;-75
2022/10/07 02:01:22;;;;;;;8.65;2.72;;;;;;;;;;5014190;28;20045;-76
2022/10/07 02:04:14;;;;;;;9.75;3.10;;;;;;;;;;5033995;28;20024;-76
2022/10/07 02:06:50;;;;;;;9.00;3.35;;;;;;;;;;5033740;28;20533;-76
2022/10/07 02:09:21;;;;;;;7.20;3.17;;;;;;;;;;5017060;28;20029;-76
2022/10/07 02:11:54;;;;;;;6.22;2.90;;;;;;;;;;5034383;28;20100;-76
2022/10/07 02:14:29;;;;;;;7.97;3.00;;;;;;;;;;5034130;28;20029;-77
2022/10/07 02:17:06;;;;;;;7.90;3.38;;;;;;;;;;5016447;28;20262;-77
2022/10/07 02:19:35;;;;;;;7.38;3.00;;;;;;;;;;5016369;28;20025;-76
2022/10/07 02:22:02;;;;;;;8.15;3.40;;;;;;;;;;5033820;28;20382;-75
2022/10/07 02:24:31;;;;;;;7.20;2.85;;;;;;;;;;5033951;28;20034;-76
2022/10/07 02:26:59;;;;;;;5.28;3.17;;;;;;;;;;5033928;28;20104;-75
2022/10/07 02:29:26;;;;;;;7.95;2.78;;;;;;;;;;5033997;28;20049;-76
2022/10/07 02:31:53;;;;;;;7.05;3.28;;;;;;;;;;5033905;28;20068;-75
2022/10/07 02:34:21;;;;;;;8.85;3.53;;;;;;;;;;5033819;28;20044;-75
2022/10/07 02:36:51;;;;;;;6.63;3.53;;;;;;;;;;5034141;28;20116;-76
2022/10/07 02:39:17;;;;;;;6.97;3.10;;;;;;;;;;5033712;28;20095;-75
2022/10/07 02:41:59;;;;;;;6.55;3.40;;;;;;;;;;5033818;28;20030;-76
2022/10/07 02:44:33;;;;;;;7.18;3.38;;;;;;;;;;5033951;28;20034;-76
2022/10/07 02:47:05;;;;;;;6.13;3.35;;;;;;;;;;5033664;28;20576;-75
2022/10/07 02:49:36;;;;;;;9.65;3.42;;;;;;;;;;5033494;28;20104;-74
2022/10/07 02:52:06;;;;;;;9.20;3.63;;;;;;;;;;5033488;28;20021;-75
2022/10/07 02:54:35;;;;;;;5.57;3.05;;;;;;;;;;5015957;28;20391;-76
2022/10/07 02:57:02;;;;;;;8.98;3.28;;;;;;;;;;5015831;28;20395;-75
2022/10/07 02:59:30;;;;;;;6.28;3.60;;;;;;;;;;5033532;28;20080;-74
2022/10/07 03:02:00;;;;;;;7.38;3.22;;;;;;;;;;5034169;28;20025;-75
2022/10/07 03:04:25;;;;;;;12.77;3.40;;;;;;;;;;5015511;28;20465;-75
2022/10/07 03:06:51;;;;;;;10.20;3.35;;;;;;;;;;5015597;28;20053;-75
2022/10/07 03:09:16;;;;;;;5.93;2.95;;;;;;;;;;5033381;28;20071;-75
2022/10/07 03:11:41;;;;;;;7.40;2.97;;;;;;;;;;5015316;28;20067;-76
2022/10/07 03:14:07;;;;;;;7.38;3.20;;;;;;;;;;5033171;28;20032;-75
2022/10/07 03:16:32;;;;;;;4.90;3.03;;;;;;;;;;5032310;28;20432;-76
2022/10/07 03:19:00;;;;;;;7.22;3.10;;;;;;;;;;5015357;28;20033;-76
2022/10/07 03:21:26;;;;;;;5.75;3.17;;;;;;;;;;5033236;28;20029;-76
2022/10/07 03:23:53;;;;;;;7.22;3.38;;;;;;;;;;5033220;28;20084;-75
2022/10/07 03:26:19;;;;;;;5.70;3.25;;;;;;;;;;5033063;28;20483;-75
2022/10/07 03:28:45;;;;;;;8.00;3.05;;;;;;;;;;5015252;28;20037;-75
2022/10/07 03:31:13;;;;;;;8.18;3.40;;;;;;;;;;5015188;28;20084;-75
2022/10/07 03:33:39;;;;;;;7.57;3.28;;;;;;;;;;5015320;28;20418;-75
2022/10/07 03:36:07;;;;;;;7.07;3.75;;;;;;;;;;5015219;28;20112;-76
2022/10/07 03:38:33;;;;;;;9.68;3.30;;;;;;;;;;5033801;28;20441;-77
2022/10/07 03:41:00;;;;;;;7.80;3.47;;;;;;;;;;5032999;28;20025;-76
2022/10/07 03:43:26;;;;;;;9.80;2.85;;;;;;;;;;5032732;28;20014;-76
2022/10/07 03:45:51;;;;;;;7.75;3.55;;;;;;;;;;5033094;28;20032;-76
2022/10/07 03:48:17;;;;;;;6.43;3.60;;;;;;;;;;5015353;28;20032;-76
2022/10/07 03:50:49;;;;;;;5.63;3.30;;;;;;;;;;5032722;28;20160;-77
2022/10/07 03:53:15;;;;;;;11.40;3.75;;;;;;;;;;5032693;28;20029;-76
2022/10/07 03:55:40;;;;;;;13.27;3.80;;;;;;;;;;5014916;28;20032;-76
2022/10/07 03:58:05;;;;;;;8.98;4.00;;;;;;;;;;5032722;28;20029;-76
2022/10/07 04:00:31;;;;;;;7.10;3.47;;;;;;;;;;5014886;28;20119;-76
2022/10/07 04:02:56;;;;;;;9.18;3.78;;;;;;;;;;5033188;28;20378;-76
2022/10/07 04:05:21;;;;;;;6.07;3.40;;;;;;;;;;5032940;28;20025;-77
2022/10/07 04:07:48;;;;;;;7.38;3.83;;;;;;;;;;5014946;28;20029;-75
2022/10/07 04:10:15;;;;;;;5.43;3.20;;;;;;;;;;5032774;28;20076;-75
2022/10/07 04:12:43;;;;;;;10.93;3.50;;;;;;;;;;5014875;28;20025;-75
2022/10/07 04:15:12;;;;;;;7.32;3.30;;;;;;;;;;5032553;28;20060;-75
2022/10/07 04:17:38;;;;;;;6.00;3.08;;;;;;;;;;5032915;28;20025;-75
2022/10/07 04:20:03;;;;;;;11.48;3.00;;;;;;;;;;5032564;28;20150;-76
2022/10/07 04:22:30;;;;;;;6.88;3.40;;;;;;;;;;5014829;28;20441;-76
2022/10/07 04:27:39;;;;;;;9.10;3.22;;;;;;;;;;5034331;28;20109;-76
2022/10/07 04:30:05;;;;;;;11.40;3.95;;;;;;;;;;5035795;28;20053;-76
2022/10/07 04:32:30;;;;;;;5.30;3.15;;;;;;;;;;5036110;28;20053;-75
2022/10/07 04:34:56;;;;;;;11.23;3.55;;;;;;;;;;5035998;28;20029;-76
2022/10/07 04:37:21;;;;;;;8.43;3.63;;;;;;;;;;5018201;28;20112;-75
2022/10/07 04:39:46;;;;;;;8.38;3.55;;;;;;;;;;5018196;28;20029;-75
2022/10/07 04:43:17;;;;;;;6.57;3.05;;;;;;;;;;5035818;28;20075;-74
2022/10/07 04:44:57;;;;;;;4.90;3.25;;;;;;;;;;5035710;28;20483;-75
2022/10/07 04:47:22;;;;;;;6.90;3.20;;;;;;;;;;5035794;28;20071;-76
2022/10/07 04:49:47;;;;;;;7.57;3.00;;;;;;;;;;5035951;28;20471;-75
2022/10/07 04:52:13;;;;;;;8.90;3.60;;;;;;;;;;5035775;28;20490;-75
2022/10/07 04:54:38;;;;;;;6.10;3.55;;;;;;;;;;5035665;28;20017;-75
2022/10/07 04:57:04;;;;;;;6.85;3.40;;;;;;;;;;5035563;28;20021;-76
2022/10/07 04:59:29;;;;;;;6.63;3.15;;;;;;;;;;5035716;28;20038;-76
2022/10/07 05:01:55;;;;;;;6.22;3.13;;;;;;;;;;5035214;28;20115;-76
2022/10/07 05:04:20;;;;;;;7.70;3.33;;;;;;;;;;5035634;28;20068;-76
2022/10/07 05:06:45;;;;;;;6.05;3.45;;;;;;;;;;5035420;28;20025;-76
2022/10/07 05:09:11;;;;;;;6.88;3.50;;;;;;;;;;5017645;28;20029;-75
2022/10/07 05:11:36;;;;;;;7.68;3.13;;;;;;;;;;5035337;28;20495;-76
2022/10/07 05:14:02;;;;;;;10.23;3.35;;;;;;;;;;5035209;28;20079;-76
2022/10/07 05:16:27;;;;;;;8.48;3.55;;;;;;;;;;5035290;28;20037;-75
2022/10/07 05:18:52;;;;;;;9.10;3.72;;;;;;;;;;5035123;28;20032;-76
2022/10/07 05:21:17;;;;;;;8.13;3.53;;;;;;;;;;5035524;28;20025;-76
2022/10/07 05:23:43;;;;;;;9.77;4.20;;;;;;;;;;5035191;28;20467;-76
2022/10/07 05:26:09;;;;;;;8.68;4.20;;;;;;;;;;5035177;28;20025;-75
2022/10/07 05:28:35;;;;;;;8.25;4.10;;;;;;;;;;5017228;28;20032;-76
2022/10/07 05:31:12;;;;;;;7.45;4.00;;;;;;;;;;5034695;28;20029;-76
2022/10/07 05:33:38;;;;;;;11.52;4.13;;;;;;;;;;5017028;28;20021;-76
2022/10/07 05:36:05;;;;;;;10.15;4.25;;;;;;;;;;5035140;28;20079;-75
2022/10/07 05:38:30;;;;;;;6.45;3.70;;;;;;;;;;5034112;28;20387;-76
2022/10/07 05:41:01;;;;;;;11.88;4.30;;;;;;;;;;5034757;28;20031;-76
2022/10/07 05:43:29;;;;;;;9.00;4.07;;;;;;;;;;5016919;28;20164;-75
2022/10/07 05:46:03;;;;;;;10.73;3.92;;;;;;;;;;5034521;28;20029;-76
2022/10/07 05:48:29;;;;;;;7.18;3.80;;;;;;;;;;5034598;28;20029;-76
2022/10/07 05:50:58;;;;;;;8.82;4.35;;;;;;;;;;5034442;28;20079;-75
2022/10/07 05:53:25;;;;;;;9.20;4.13;;;;;;;;;;5016759;28;20059;-77
2022/10/07 05:55:51;;;;;;;9.50;4.50;;;;;;;;;;5034919;28;20040;-76
2022/10/07 05:58:17;;;;;;;11.00;4.45;;;;;;;;;;5034743;28;20029;-76
2022/10/07 06:00:52;;;;;;;7.25;3.95;;;;;;;;;;5035027;28;20079;-76
2022/10/07 06:03:18;;;;;;;6.32;3.70;;;;;;;;;;5016450;28;20018;-76
2022/10/07 06:05:44;;;;;;;4.50;3.17;;;;;;;;;;5034377;28;20036;-76
2022/10/07 06:08:10;;;;;;;8.73;3.65;;;;;;;;;;5034187;28;20036;-76
2022/10/07 06:13:19;;;;;;;6.40;3.25;;;;;;;;;;5034657;28;20025;-76
2022/10/07 06:15:44;;;;;;;6.22;3.05;;;;;;;;;;5034149;28;20030;-76
2022/10/07 06:18:09;;;;;;;6.68;3.42;;;;;;;;;;5034251;28;20028;-76
2022/10/07 06:20:35;;;;;;;13.70;3.92;;;;;;;;;;5034154;28;20051;-76
2022/10/07 06:23:00;;;;;;;6.45;3.65;;;;;;;;;;5033880;28;20025;-75
2022/10/07 06:25:25;;;;;;;9.38;3.67;;;;;;;;;;5033762;28;20494;-76
2022/10/07 06:27:54;;;;;;;7.57;3.90;;;;;;;;;;5033808;28;20394;-75
2022/10/07 06:30:19;;;;;;;13.15;4.03;;;;;;;;;;5033526;28;20029;-76
2022/10/07 06:32:45;;;;;;;10.43;4.32;;;;;;;;;;5016161;28;20018;-76
2022/10/07 06:35:10;;;;;;;7.35;3.80;;;;;;;;;;5015984;28;20119;-76
2022/10/07 06:37:38;;;;;;;13.00;4.03;;;;;;;;;;5015935;28;20056;-76
2022/10/07 06:40:03;;;;;;;11.68;4.07;;;;;;;;;;5033793;28;20029;-75
2022/10/07 06:42:30;;;;;;;7.78;4.38;;;;;;;;;;5033240;28;20142;-76
2022/10/07 06:44:55;;;;;;;12.00;4.70;;;;;;;;;;5033411;28;20080;-75
2022/10/07 06:47:20;;;;;;;7.65;4.50;;;;;;;;;;5033465;28;20021;-75
2022/10/07 06:49:46;;;;;;;10.05;4.43;;;;;;;;;;5033218;28;20406;-75
2022/10/07 06:52:11;;;;;;;10.30;4.60;;;;;;;;;;5033427;28;20402;-75
2022/10/07 06:54:36;;;;;;;9.98;4.60;;;;;;;;;;5033382;28;20037;-76
2022/10/07 06:57:01;;;;;;;11.98;4.32;;;;;;;;;;5033110;28;20471;-75
2022/10/07 06:59:27;;;;;;;8.15;4.20;;;;;;;;;;5033151;28;20399;-75
2022/10/07 07:01:52;;;;;;;14.68;5.07;;;;;;;;;;5033346;28;20098;-76
2022/10/07 07:04:17;;;;;;;12.02;5.20;;;;;;;;;;5033433;28;20032;-76
2022/10/07 07:06:43;;;;;;;11.18;4.65;;;;;;;;;;5015488;28;20021;-75
2022/10/07 07:09:14;;;;;;;11.27;4.93;;;;;;;;;;5033034;28;20047;-75
2022/10/07 07:11:42;;;;;;;8.55;4.68;;;;;;;;;;5032948;28;20052;-76
2022/10/07 07:14:10;;;;;;;9.70;5.00;;;;;;;;;;5033097;28;20095;-77
2022/10/07 07:16:36;;;;;;;10.68;4.78;;;;;;;;;;5033084;28;20023;-77
2022/10/07 07:19:06;;;;;;;8.63;5.07;;;;;;;;;;5033260;28;20101;-75
2022/10/07 07:21:33;;;;;;;11.27;5.43;;;;;;;;;;5015237;28;20099;-75
2022/10/07 07:23:59;;;;;;;17.17;5.20;;;;;;;;;;5032884;28;20071;-75
2022/10/07 07:26:26;;;;;;;10.48;4.63;;;;;;;;;;5032963;28;20029;-76
2022/10/07 07:29:01;;;;;;;10.63;4.45;;;;;;;;;;5015054;28;20030;-75
2022/10/07 07:31:28;;;;;;;9.52;4.50;;;;;;;;;;5015219;28;20395;-76
2022/10/07 07:33:55;;;;;;;13.27;4.65;;;;;;;;;;5032896;28;20093;-75
2022/10/07 07:36:23;;;;;;;9.90;4.05;;;;;;;;;;5015303;28;20399;-76
2022/10/07 07:38:53;;;;;;;10.15;4.80;;;;;;;;;;5033117;28;20120;-77
2022/10/07 07:41:24;;;;;;;9.32;4.45;;;;;;;;;;5032713;28;20025;-76
2022/10/07 07:43:51;;;;;;;8.70;5.10;;;;;;;;;;5032921;28;20022;-76
2022/10/07 07:46:19;;;;;;;13.15;4.22;;;;;;;;;;5032698;28;20039;-76
2022/10/07 07:48:45;;;;;;;7.00;4.43;;;;;;;;;;5032788;28;20393;-76
2022/10/07 07:51:11;;;;;;;8.40;3.83;;;;;;;;;;5014909;28;20051;-77
2022/10/07 07:53:37;;;;;;;9.02;4.03;;;;;;;;;;5032636;28;20021;-77
2022/10/07 07:56:02;;;;;;;7.07;3.30;;;;;;;;;;5032980;28;20044;-76
2022/10/07 07:58:28;;;;;;;7.35;3.60;;;;;;;;;;5032869;28;20033;-76
2022/10/07 08:01:02;;;;;;;6.80;3.80;;;;;;;;;;5032584;28;20056;-77
2022/10/07 08:03:29;;;;;;;7.38;3.55;;;;;;;;;;5035920;28;20052;-76
2022/10/07 08:05:54;;;;;;;8.48;3.70;;;;;;;;;;5036682;28;20108;-77
2022/10/07 08:08:20;;;;;;;7.65;3.33;;;;;;;;;;5036347;28;20017;-76
2022/10/07 08:10:45;;;;;;;5.85;3.30;;;;;;;;;;5036322;28;20067;-76
2022/10/07 08:13:11;;;;;;;5.45;2.88;;;;;;;;;;5036787;28;20128;-76
2022/10/07 08:15:36;;;;;;;4.30;3.40;;;;;;;;;;5036250;28;20064;-76
2022/10/07 08:18:03;;;;;;;8.40;3.55;;;;;;;;;;5036246;28;20090;-76
2022/10/07 08:20:29;;;;;;;6.13;3.13;;;;;;;;;;5036172;28;20017;-76
2022/10/07 08:22:54;;;;;;;5.38;3.03;;;;;;;;;;5036112;28;20026;-76
2022/10/07 08:25:21;;;;;;;6.35;3.13;;;;;;;;;;5018659;28;20394;-76
2022/10/07 08:27:47;;;;;;;11.02;3.08;;;;;;;;;;5036105;28;20112;-76
2022/10/07 08:30:12;;;;;;;6.40;3.03;;;;;;;;;;5018024;28;20083;-76
2022/10/07 08:32:38;;;;;;;5.75;3.00;;;;;;;;;;5018254;28;20049;-76
2022/10/07 08:35:03;;;;;;;7.35;3.30;;;;;;;;;;5035962;28;20021;-76
2022/10/07 08:37:29;;;;;;;8.93;3.25;;;;;;;;;;5018105;28;20394;-75
2022/10/07 08:39:54;;;;;;;7.65;3.33;;;;;;;;;;5035906;28;20056;-75
2022/10/07 08:42:41;;;;;;;11.40;3.40;;;;;;;;;;5035770;28;20044;-76
2022/10/07 08:45:14;;;;;;;5.28;2.75;;;;;;;;;;5018396;28;20044;-76
2022/10/07 08:47:44;;;;;;;6.15;3.00;;;;;;;;;;5036019;28;20025;-76
2022/10/07 08:50:25;;;;;;;7.82;3.00;;;;;;;;;;5035600;28;20025;-76
2022/10/07 08:52:59;;;;;;;8.52;2.90;;;;;;;;;;5035772;28;20033;-76
2022/10/07 08:55:27;;;;;;;7.45;2.60;;;;;;;;;;5035636;28;20025;-77
2022/10/07 08:58:12;;;;;;;6.20;3.30;;;;;;;;;;5017650;28;20025;-76
2022/10/07 09:00:44;;;;;;;6.80;3.05;;;;;;;;;;5035392;28;20022;-76
2022/10/07 09:03:35;;;;;;;5.35;2.67;;;;;;;;;;5035791;28;20120;-76
2022/10/07 09:06:12;;;;;;;4.88;2.72;;;;;;;;;;5035606;28;20026;-76
2022/10/07 09:08:42;;;;;;;6.57;3.08;;;;;;;;;;5035407;28;20525;-76
2022/10/07 09:11:15;;;;;;;4.65;2.80;;;;;;;;;;5035215;28;20108;-76
2022/10/07 09:13:49;;;;;;;5.18;2.63;;;;;;;;;;5033956;28;20023;-74
2022/10/07 09:16:42;;;;;;;9.02;2.88;;;;;;;;;;5035371;28;20029;-76
2022/10/07 09:19:15;;;;;;;6.45;2.80;;;;;;;;;;5026691;28;20048;-75
2022/10/07 09:21:46;;;;;;;9.43;2.88;;;;;;;;;;5035113;28;20025;-75
2022/10/07 09:24:23;;;;;;;6.47;3.08;;;;;;;;;;5035168;28;20454;-75
2022/10/07 09:26:54;;;;;;;6.03;2.65;;;;;;;;;;5035224;28;20390;-75
2022/10/07 09:29:22;;;;;;;7.60;2.85;;;;;;;;;;5034849;28;20395;-75
2022/10/07 09:31:48;;;;;;;6.75;2.65;;;;;;;;;;5034652;28;20063;-75
2022/10/07 09:34:28;;;;;;;4.82;2.50;;;;;;;;;;5034766;28;20040;-75
2022/10/07 09:37:19;;;;;;;7.28;2.40;;;;;;;;;;5035067;28;20028;-76
2022/10/07 09:39:48;;;;;;;6.80;2.67;;;;;;;;;;5017112;28;20029;-76
2022/10/07 09:42:38;;;;;;;7.32;2.90;;;;;;;;;;5034870;28;20079;-75
2022/10/07 09:45:20;;;;;;;6.13;2.70;;;;;;;;;;5034701;28;20022;-75
2022/10/07 09:47:51;;;;;;;5.40;2.30;;;;;;;;;;5034849;28;20386;-75
2022/10/07 09:50:37;;;;;;;7.75;2.63;;;;;;;;;;5034739;28;20021;-76
2022/10/07 09:53:05;;;;;;;5.72;2.30;;;;;;;;;;5034454;28;20108;-76
2022/10/07 09:55:40;;;;;;;5.47;2.75;;;;;;;;;;5034446;28;20032;-75
2022/10/07 09:58:17;;;;;;;4.72;2.40;;;;;;;;;;5035425;28;20029;-76
2022/10/07 10:00:44;;;;;;;6.55;2.60;;;;;;;;;;5035385;28;20471;-77
2022/10/07 10:03:10;;;;;;;4.10;2.40;;;;;;;;;;5034950;28;20474;-77
2022/10/07 10:05:39;;;;;;;3.70;2.35;;;;;;;;;;5017538;28;20029;-77
2022/10/07 10:08:17;;;;;;;5.30;2.42;;;;;;;;;;5034328;28;20087;-76
2022/10/07 10:10:52;;;;;;;7.45;2.30;;;;;;;;;;5034026;28;20470;-75
2022/10/07 10:13:35;;;;;;;3.72;2.10;;;;;;;;;;5034106;28;20494;-74
2022/10/07 10:16:02;;;;;;;6.45;2.55;;;;;;;;;;5016475;28;20032;-76
2022/10/07 10:18:40;;;;;;;4.75;2.10;;;;;;;;;;5034013;28;20045;-75
2022/10/07 10:21:39;;;;;;;5.78;2.47;;;;;;;;;;5033963;28;20414;-76
2022/10/07 10:24:14;;;;;;;4.20;2.08;;;;;;;;;;5033776;28;20491;-76
2022/10/07 10:26:58;;;;;;;5.93;2.30;;;;;;;;;;5033786;28;20033;-76
2022/10/07 10:29:42;;;;;;;4.97;2.10;;;;;;;;;;5016182;28;20550;-75
2022/10/07 10:32:21;;;;;;;3.63;1.83;;;;;;;;;;5033513;28;20091;-76
2022/10/07 10:35:12;;;;;;;4.15;2.10;;;;;;;;;;5016085;28;20057;-75
2022/10/07 10:37:40;;;;;;;3.17;1.75;;;;;;;;;;5033880;28;20029;-75
2022/10/07 10:40:36;;;;;;;3.60;2.50;;;;;;;;;;5033532;28;20029;-76
2022/10/07 10:43:23;;;;;;;3.97;1.90;;;;;;;;;;5033575;28;20040;-76
2022/10/07 10:46:18;;;;;;;3.72;1.73;;;;;;;;;;5033541;28;20021;-75
2022/10/07 10:48:43;;;;;;;;;;;;;;;;;;5034444;28;20029;-76
2022/10/07 10:51:39;;;;;;;4.43;1.47;;;;;;;;;;5033547;28;19913;-75
2022/10/07 10:54:21;;;;;;;5.65;1.65;;;;;;;;;;5033372;28;20025;-76
2022/10/07 10:56:57;;;;;;;3.42;1.95;;;;;;;;;;5033695;28;20052;-76
2022/10/07 10:59:43;;;;;;;4.10;1.70;;;;;;;;;;5033543;28;20483;-77
2022/10/07 11:02:30;;;;;;;4.90;1.95;;;;;;;;;;5033233;28;20029;-76
2022/10/07 11:05:04;;;;;;;2.75;1.67;;;;;;;;;;5033616;28;20038;-76
2022/10/07 11:07:34;;;;;;;8.27;1.65;;;;;;;;;;5033672;28;20029;-76
2022/10/07 11:10:05;;;;;;;2.78;1.40;;;;;;;;;;5033104;28;20034;-76
2022/10/07 11:12:38;;;;;;;2.85;1.50;;;;;;;;;;5033420;28;20032;-77
2022/10/07 11:15:15;;;;;;;2.83;1.30;;;;;;;;;;5033194;28;20078;-76
2022/10/07 11:17:42;;;;;;;3.05;1.40;;;;;;;;;;5015449;28;20074;-76
2022/10/07 11:20:17;;;;;;;4.43;1.80;;;;;;;;;;5033250;28;20035;-77
2022/10/07 11:23:24;;;;;;;4.57;1.45;;;;;;;;;;5033050;28;20029;-75
2022/10/07 11:25:56;;;;;;;4.13;1.60;;;;;;;;;;4989109;28;20545;-76
2022/10/07 11:28:25;;;;;;;6.70;1.80;;;;;;;;;;5033565;28;20372;-76
2022/10/07 11:31:05;;;;;;;2.38;1.58;;;;;;;;;;5032850;28;20033;-76
2022/10/07 11:33:48;;;;;;;4.13;1.70;;;;;;;;;;5033159;28;20018;-76
2022/10/07 11:36:17;;;;;;;2.50;1.48;;;;;;;;;;5015114;28;20496;-76
2022/10/07 11:38:44;;;;;;;1.80;1.42;;;;;;;;;;5036773;28;20036;-76
2022/10/07 11:41:19;;;;;;;4.00;1.60;;;;;;;;;;5037164;28;20032;-76
2022/10/07 11:43:55;;;;;;;5.28;2.00;;;;;;;;;;5037098;28;20021;-75
2022/10/07 11:46:38;;;;;;;2.55;1.50;;;;;;;;;;5037564;28;20168;-76
2022/10/07 11:49:09;;;;;;;3.92;1.60;;;;;;;;;;5019105;28;20339;-76
2022/10/07 11:51:50;;;;;;;3.92;1.80;;;;;;;;;;5019308;28;20506;-76
2022/10/07 11:54:19;;;;;;;7.75;1.80;;;;;;;;;;5036963;28;20017;-76
2022/10/07 11:56:48;;;;;;;6.18;1.73;;;;;;;;;;5036630;28;20029;-76
2022/10/07 11:59:33;;;;;;;4.82;1.70;;;;;;;;;;5036594;28;20040;-76
2022/10/07 12:01:58;;;;;;;4.28;1.50;;;;;;;;;;5036511;28;20075;-76
2022/10/07 12:04:30;;;;;;;3.53;1.70;;;;;;;;;;5036989;28;20116;-76
2022/10/07 12:07:32;;;;;;;6.38;1.73;;;;;;;;;;5036587;28;20037;-76
2022/10/07 12:10:06;;;;;;;3.63;1.77;;;;;;;;;;5036434;28;20032;-76
2022/10/07 12:12:44;;;;;;;3.30;1.48;;;;;;;;;;5019595;28;20030;-76
2022/10/07 12:15:24;;;;;;;6.88;1.75;;;;;;;;;;5036462;28;20092;-76
2022/10/07 12:17:55;;;;;;;3.00;1.63;;;;;;;;;;5018875;28;20060;-75
2022/10/07 12:20:53;;;;;;;6.28;1.75;;;;;;;;;;5036276;28;20038;-75
2022/10/07 12:23:21;;;;;;;4.20;1.65;;;;;;;;;;5035804;28;20033;-75
2022/10/07 12:25:59;;;;;;;4.25;1.90;;;;;;;;;;5036199;28;20386;-76
2022/10/07 12:28:24;;;;;;;7.45;1.80;;;;;;;;;;5036168;28;20100;-76
2022/10/07 12:30:55;;;;;;;5.10;1.70;;;;;;;;;;5035796;28;20072;-77
2022/10/07 12:33:32;;;;;;;5.88;2.00;;;;;;;;;;5036059;28;20025;-77
2022/10/07 12:36:20;;;;;;;2.15;1.50;;;;;;;;;;5018104;28;20498;-75
2022/10/07 12:39:08;;;;;;;8.48;2.15;;;;;;;;;;5036050;28;20056;-75
2022/10/07 12:41:34;;;;;;;3.03;1.80;;;;;;;;;;5035663;28;20018;-75
2022/10/07 12:44:25;;;;;;;3.95;1.70;;;;;;;;;;5035977;28;20022;-74
2022/10/07 12:47:09;;;;;;;3.80;1.83;;;;;;;;;;5036020;28;20082;-76
2022/10/07 12:49:48;;;;;;;4.13;2.03;;;;;;;;;;5035354;28;20026;-76
2022/10/07 12:52:44;;;;;;;3.70;1.90;;;;;;;;;;5035960;28;20033;-75
2022/10/07 12:55:16;;;;;;;2.35;1.73;;;;;;;;;;5017855;28;20053;-75
2022/10/07 12:57:47;;;;;;;5.38;1.90;;;;;;;;;;5018378;28;20021;-76
2022/10/07 13:00:17;;;;;;;2.58;1.60;;;;;;;;;;5035472;28;20063;-75
2022/10/07 13:02:45;;;;;;;2.95;1.65;;;;;;;;;;5035731;28;20112;-75
2022/10/07 13:05:48;;;;;;;4.47;2.20;;;;;;;;;;5017565;28;20025;-75
2022/10/07 13:08:39;;;;;;;4.32;1.90;;;;;;;;;;5017560;28;20017;-75
2022/10/07 13:11:10;;;;;;;2.65;1.65;;;;;;;;;;5035191;28;20021;-77
2022/10/07 13:13:54;;;;;;;5.60;1.77;;;;;;;;;;5017481;28;20070;-74
2022/10/07 13:16:44;;;;;;;3.97;1.73;;;;;;;;;;5035358;28;20152;-75
2022/10/07 13:19:17;;;;;;;4.93;2.00;;;;;;;;;;5035215;28;20029;-74
2022/10/07 13:21:48;;;;;;;7.78;2.00;;;;;;;;;;5035571;28;20386;-75
2022/10/07 13:24:19;;;;;;;4.53;1.77;;;;;;;;;;5034954;28;20053;-76
2022/10/07 13:26:45;;;;;;;3.75;1.60;;;;;;;;;;5035196;28;20074;-75
2022/10/07 13:29:26;;;;;;;6.30;1.90;;;;;;;;;;5035318;28;20029;-75
2022/10/07 13:32:06;;;;;;;5.45;1.83;;;;;;;;;;5034746;28;20079;-76
2022/10/07 13:34:32;;;;;;;4.55;1.90;;;;;;;;;;5017350;28;20378;-76
2022/10/07 13:36:57;;;;;;;10.02;1.88;;;;;;;;;;5035086;28;20110;-76
2022/10/07 13:39:23;;;;;;;5.32;1.75;;;;;;;;;;5034754;28;20543;-75
2022/10/07 13:41:54;;;;;;;3.10;1.77;;;;;;;;;;5016859;28;20044;-74
2022/10/07 13:44:22;;;;;;;8.60;2.00;;;;;;;;;;5034917;28;20056;-75
2022/10/07 13:47:16;;;;;;;3.88;2.10;;;;;;;;;;5034692;28;20112;-75
2022/10/07 13:49:43;;;;;;;3.47;1.63;;;;;;;;;;5035098;28;20109;-75
2022/10/07 13:52:23;;;;;;;8.07;1.42;;;;;;;;;;5016447;28;20026;-74
2022/10/07 13:54:50;;;;;;;2.22;1.55;;;;;;;;;;5034494;28;20467;-76
2022/10/07 13:57:16;;;;;;;7.10;1.92;;;;;;;;;;5034145;28;20032;-75
2022/10/07 13:59:41;;;;;;;8.23;1.73;;;;;;;;;;5015356;28;20026;-74
2022/10/07 14:02:11;;;;;;;4.28;1.50;;;;;;;;;;5033842;28;20049;-74
2022/10/07 14:04:48;;;;;;;3.10;1.63;;;;;;;;;;5034118;28;20021;-75
2022/10/07 14:07:19;;;;;;;2.58;1.50;;;;;;;;;;5034449;28;20491;-75
2022/10/07 14:09:57;;;;;;;4.68;1.50;;;;;;;;;;5016219;28;20028;-75
2022/10/07 14:12:32;;;;;;;3.40;1.48;;;;;;;;;;5033961;28;20025;-74
2022/10/07 14:15:12;;;;;;;3.15;1.30;;;;;;;;;;5016498;28;20404;-75
2022/10/07 14:17:37;;;;;;;2.72;1.50;;;;;;;;;;5034110;28;20036;-75
2022/10/07 14:20:17;;;;;;;6.85;1.30;;;;;;;;;;5016120;28;20116;-76
2022/10/07 14:22:48;;;;;;;5.82;1.50;;;;;;;;;;5016136;28;20032;-75
2022/10/07 14:25:29;;;;;;;7.25;1.77;;;;;;;;;;5033891;28;20108;-75
2022/10/07 14:28:14;;;;;;;2.85;1.40;;;;;;;;;;5034182;28;20124;-75
2022/10/07 14:36:30;;;;;;;6.55;1.60;;;;;;;;;;5034154;28;20036;-77
2022/10/07 14:38:58;;;;;;;3.50;1.55;;;;;;;;;;5015958;28;20021;-77
2022/10/07 14:41:26;;;;;;;2.38;1.40;;;;;;;;;;5015928;28;20047;-76
2022/10/07 14:43:51;;;;;;;4.68;1.27;;;;;;;;;;5033682;28;20384;-75
2022/10/07 14:46:25;;;;;;;5.60;1.50;;;;;;;;;;5033531;28;20025;-75
2022/10/07 14:48:52;;;;;;;2.60;1.50;;;;;;;;;;5034026;28;20029;-76
2022/10/07 14:51:20;;;;;;;5.18;1.63;;;;;;;;;;5033530;28;20056;-74
2022/10/07 14:53:49;;;;;;;4.88;1.27;;;;;;;;;;5015610;28;20537;-75
2022/10/07 14:56:22;;;;;;;4.00;1.40;;;;;;;;;;5033388;28;20052;-75
2022/10/07 14:58:48;;;;;;;3.25;1.60;;;;;;;;;;5033417;28;20033;-75
2022/10/07 15:01:13;;;;;;;8.40;1.60;;;;;;;;;;5033196;28;20048;-75
2022/10/07 15:03:38;;;;;;;2.88;1.50;;;;;;;;;;5033399;28;20064;-74
2022/10/07 15:06:05;;;;;;;2.40;1.30;;;;;;;;;;5033345;28;20382;-76
2022/10/07 15:08:30;;;;;;;6.38;1.60;;;;;;;;;;5033022;28;20021;-75
2022/10/07 15:10:56;;;;;;;5.07;1.40;;;;;;;;;;5033159;28;20067;-76
2022/10/07 15:13:21;;;;;;;4.70;1.42;;;;;;;;;;5015174;28;20148;-75
2022/10/07 15:15:47;;;;;;;3.15;1.42;;;;;;;;;;5033224;28;20163;-73
2022/10/07 15:18:12;;;;;;;2.78;1.52;;;;;;;;;;5033068;28;20391;-76